x

La Perouse Bank (46206) Wave Buoy

6:00 - Tue 24th Jan 2017 All times are PST. -8 hours from GMT.

  • Sig Wave height 8.9ft
  • Peak Period 12s
  • Wind
    7mph, 9mph gusts
  • Sea Temp 52°f
  • Ar Temp 45°f
  • Sea Pressure 1018mb
  • La Perouse Bank
  • La Perouse Bank

More Historic Weather Station data

Upgrade to MSW Pro to gain access to the past 30 days of data for over 8000 Wavebouys and Weather Stations around the globe.

Join Pro

Comparision Forecast

View Surf forecast
   
Ter 01/24 6:00 9ft 12s 7 9 mph 1018mb 52f 45f
5:00 9ft 11s 7 11 mph 1017.7mb 52f 45f
4:00 8ft 12s 2 4 mph 1017.5mb 57f 46f
3:00 9ft 12s 2 4 mph 1017.2mb 52f 45f
2:00 9ft 13s 2 4 mph 1016.9mb 53f 46f
1:00 9ft 12s 4 7 mph 1016.4mb 57f 46f
12:00 10ft 12s 4 7 mph 1016.2mb 51f 46f
Seg 01/23 11:00 9ft 13s 7 9 mph 1015.9mb 55f 47f
10:00 10ft 13s 2 4 mph 1015.1mb 53f 47f
9:00 9ft 11s 9 11 mph 1014.9mb 53f 48f
8:00 10ft 12s 13 16 mph 1014.8mb 57f 48f
7:00 9.5ft 12s 13 16 mph 1014.5mb 55f 48f
6:00 10ft 10s 11 13 mph 1014.2mb 56f 48f
5:00 10ft 11s 9 13 mph 1013.9mb 53f 48f
4:00 9ft 10s 11 13 mph 1013.7mb 54f 49f
3:00 10ft 11s 9 11 mph 1013.3mb 54f 49f
2:00 10ft 10s 4 7 mph 1012.4mb 53f 49f
1:00 10ft 11s  -  2 mph 1012.2mb 55f 49f
12:00 10ft 11s 4 7 mph 1011.8mb 55f 48f
11:00 10ft 11s 7 9 mph 1011.5mb 53f 47f
10:00 11.5ft 11s 4 9 mph 1010.7mb 55f 47f
9:00 11.5ft 10s 7 9 mph 1009.3mb 53f 47f
8:00 12ft 11s 11 13 mph 1008.5mb 54f 46f
7:00 13ft 11s 11 16 mph 1007.5mb 54f 46f
6:00 12.5ft 11s 11 16 mph 1006.4mb 53f 46f
5:00 14.5ft 11s 13 20 mph 1005.5mb 55f 47f
4:00 14ft 11s 16 20 mph 1004.8mb 54f 47f
3:00 14ft 12s 16 20 mph 1004.1mb 58f 47f
2:00 14ft 12s 18 22 mph 1002.9mb 51f 47f
1:00 15ft 12s 18 22 mph 1002.1mb 55f 46f
12:00 15.5ft 12s 20 27 mph 1001.5mb 59f 47f
Dom 01/22 11:00 14ft 13s 22 27 mph 1000.8mb 56f 47f
10:00 16.5ft 13s 22 29 mph 1000.7mb 58f 47f
9:00  -   -  22
mph
999.8mb - 47f
8:00 17ft 12s 27 34 mph 999.1mb 58f 46f
7:00 18ft 14s 27 31 mph 998.6mb 55f 47f
6:00 17ft 14s 25 31 mph 998.2mb 52f 47f
5:00  -   -  27
mph
- - 48f
4:00 20.5ft 14s 29 36 mph 997.3mb 52f 47f
3:00 18.5ft 12s 29 38 mph 996.9mb 53f 47f
2:00 13ft 9s 31 38 mph 996.1mb 61f 46f
1:00 12ft 8s 29 38 mph 995.8mb 53f 46f
12:00 11.5ft 8s 34 40 mph 995.2mb 53f 47f
11:00 11ft 7s 34 43 mph 995mb 52f 49f
10:00 11ft 14s 34 43 mph 994.1mb 53f 47f
8:00 10.5ft 13s 29 40 mph 992.6mb 53f 48f
7:00 10ft 13s 29 38 mph 991.6mb 55f 49f
6:00 12ft 15s 29 36 mph 991.4mb 53f 49f
5:00 12ft 14s 22 31 mph 992.3mb 57f 48f
4:00 12ft 13s 22 29 mph 994mb 53f 47f
3:00 13ft 15s 22 31 mph 995.6mb 59f 47f
2:00 14.5ft 14s 25 31 mph 996.6mb 54f 46f
1:00 14ft 15s 27 34 mph 997.2mb 55f 47f
12:00 14.5ft 14s 25 31 mph 997.8mb 53f 47f
Sáb 01/21 11:00 14ft 16s 25 31 mph 998mb 54f 48f
10:00 14ft 16s 27 34 mph 997.6mb 54f 48f
9:00 13ft 16s 22 29 mph 997.7mb 55f 48f
8:00 14ft 16s 22 25 mph 997.4mb 53f 48f
7:00 14ft 16s 20 27 mph 996.9mb 53f 49f
6:00 14ft 17s 25 29 mph 996.1mb 56f 48f
5:00 15ft 17s 25 31 mph 995.7mb 58f 47f
4:00 13.5ft 16s 25 29 mph 995mb 54f 47f
3:00 14ft 16s 25 29 mph 994.4mb 54f 47f
2:00 15ft 16s 25 29 mph 993.7mb 54f 47f
1:00 15.5ft 14s 25 31 mph 993.1mb 55f 48f
12:00 15.5ft 17s 22 29 mph 992.8mb 53f 47f
11:00 15.5ft 16s 22 29 mph 992.3mb 52f 47f
10:00 17.5ft 17s 25 31 mph 991.6mb 56f 47f
9:00 15ft 16s 22 29 mph 990.9mb 54f 47f
8:00 15ft 15s 20 27 mph 990.2mb 53f 47f
7:00 14.5ft 18s 22 29 mph 989.3mb 52f 47f
6:00 13ft 18s 20 27 mph 989mb 53f 47f
4:00 12.5ft 17s 22 27 mph 988.3mb 56f 47f
3:00 11ft 18s 20 27 mph 988.2mb 54f 47f
2:00 10.5ft 18s 20 27 mph 988mb 53f 46f
1:00 10ft 14s 20 25 mph 987.7mb 58f 46f
12:00 10ft 11s 20 22 mph 987.4mb 53f 47f
Sex 01/20 11:00 10ft 11s 20 27 mph 987.1mb 52f 47f
10:00 10.5ft 12s 20 25 mph 986.9mb 52f 48f
9:00 12ft 11s 13 16 mph 986.5mb 54f 48f
8:00 11.5ft 10s 16 18 mph 985.9mb 54f 48f
7:00 11ft 14s 16 20 mph 985.5mb 54f 48f
6:00 11.5ft 14s 16 18 mph 985.1mb 54f 49f
5:00 11ft 16s 16 20 mph 984.8mb 53f 49f
4:00 11ft 15s 18 22 mph 984.5mb 56f 49f